Time;durP1;ratioP1;P1;durP2;ratioP2;P2;SDS_P1;SDS_P2;PMS_P1;PMS_P2;Temp;Humidity;BMP_temperature;BMP_pressure;BME280_temperature;BME280_humidity;BME280_pressure;Samples;Min_cycle;Max_cycle;Signal;HPM_P1;HPM_P2
2022/05/16 00:01:33;;;;;;;6.55;2.72;;;;;;;16.70;nan;101353.81;5032974;28;20469;-54
2022/05/16 00:03:58;;;;;;;5.45;2.75;;;;;;;16.27;nan;101284.16;5015107;28;20097;-49
2022/05/16 00:06:24;;;;;;;7.05;3.28;;;;;;;16.56;nan;101338.53;5032962;28;20037;-58
2022/05/16 00:08:51;;;;;;;8.75;3.00;;;;;;;16.47;nan;101336.31;5015010;28;20115;-53
2022/05/16 00:11:17;;;;;;;8.00;3.15;;;;;;;16.32;nan;101323.75;5032670;28;20029;-51
2022/05/16 00:13:42;;;;;;;8.05;3.55;;;;;;;16.31;nan;101324.72;5014885;28;20499;-55
2022/05/16 00:16:07;;;;;;;12.80;3.78;;;;;;;16.20;nan;101321.69;5032578;28;20064;-49
2022/05/16 00:18:33;;;;;;;6.82;3.00;;;;;;;16.15;nan;101321.06;5031511;28;20362;-52
2022/05/16 00:20:58;;;;;;;7.25;3.03;;;;;;;15.73;nan;101250.47;5032801;28;20037;-47
2022/05/16 00:23:23;;;;;;;5.72;2.80;;;;;;;16.03;nan;101306.56;5032682;28;20038;-48
2022/05/16 00:25:51;;;;;;;10.82;3.70;;;;;;;15.59;nan;101244.06;5032707;28;20473;-50
2022/05/16 00:28:17;;;;;;;8.63;3.17;;;;;;;15.57;nan;101232.69;5032206;28;20306;-49
2022/05/16 00:30:42;;;;;;;6.18;3.05;;;;;;;15.52;nan;101226.75;5032381;28;20033;-50
2022/05/16 00:33:07;;;;;;;9.32;3.13;;;;;;;15.83;nan;101282.75;5032438;28;20056;-53
2022/05/16 00:35:33;;;;;;;9.90;3.65;;;;;;;15.48;nan;101233.97;5032065;28;20041;-53
2022/05/16 00:37:58;;;;;;;8.88;3.40;;;;;;;15.72;nan;101283.25;5032199;28;20128;-54
2022/05/16 00:40:23;;;;;;;5.70;3.08;;;;;;;15.68;nan;101276.38;5032177;28;20160;-53
2022/05/16 00:42:49;;;;;;;6.70;2.75;;;;;;;15.23;nan;101200.66;5032029;28;20034;-53
2022/05/16 00:45:16;;;;;;;8.90;3.13;;;;;;;15.39;nan;101244.09;5032296;28;20075;-53
2022/05/16 00:47:42;;;;;;;6.68;2.63;;;;;;;15.25;nan;101212.06;5030976;28;20496;-49
2022/05/16 00:50:09;;;;;;;10.00;3.17;;;;;;;15.28;nan;101214.56;5014434;28;20029;-53
2022/05/16 00:52:37;;;;;;;8.57;3.45;;;;;;;15.23;nan;101216.56;5014457;28;20144;-52
2022/05/16 00:55:10;;;;;;;6.22;2.88;;;;;;;15.43;nan;101251.88;5014372;28;20033;-53
2022/05/16 00:57:38;;;;;;;9.68;3.55;;;;;;;15.46;nan;101262.34;5014550;28;20029;-55
2022/05/16 01:00:09;;;;;;;8.32;2.72;;;;;;;15.46;nan;101251.72;5011205;28;20497;-46
2022/05/16 01:05:21;;;;;;;7.70;2.63;;;;;;;15.41;nan;101236.97;5011489;28;20095;-55
2022/05/16 01:07:47;;;;;;;9.88;3.28;;;;;;;15.41;nan;101247.56;5013952;28;20030;-50
2022/05/16 01:10:17;;;;;;;8.13;3.25;;;;;;;15.38;nan;101242.41;5015013;28;20401;-47
2022/05/16 01:12:45;;;;;;;9.05;3.45;;;;;;;15.35;nan;101237.25;5016379;28;20030;-49
2022/05/16 01:15:25;;;;;;;13.30;2.90;;;;;;;15.30;nan;101216.22;5016257;28;20049;-50
2022/05/16 01:17:51;;;;;;;8.73;2.95;;;;;;;15.10;nan;101182.66;5016093;28;20026;-55
2022/05/16 01:20:16;;;;;;;8.35;3.55;;;;;;;15.44;nan;101234.16;5016001;28;20485;-49
2022/05/16 01:22:52;;;;;;;12.82;4.30;;;;;;;15.16;nan;101187.69;5016033;28;20405;-51
2022/05/16 01:25:27;;;;;;;6.63;3.08;;;;;;;15.45;nan;101236.72;5016087;28;20477;-47
2022/05/16 01:28:04;;;;;;;7.10;3.28;;;;;;;15.41;nan;101229.00;5019006;28;20034;-50
2022/05/16 01:30:47;;;;;;;9.68;3.33;;;;;;;15.40;nan;101227.28;4998533;28;20448;-55
2022/05/16 01:33:20;;;;;;;6.40;2.65;;;;;;;15.00;nan;101156.66;5014198;28;20077;-52
2022/05/16 01:35:45;;;;;;;8.60;3.30;;;;;;;14.65;nan;101123.78;5015745;28;20033;-56
2022/05/16 01:38:18;;;;;;;8.20;3.20;;;;;;;14.93;nan;101179.03;4998163;28;20088;-55
2022/05/16 01:40:48;;;;;;;7.95;3.05;;;;;;;15.23;nan;101232.50;5015758;28;20473;-51
2022/05/16 01:43:13;;;;;;;7.22;3.55;;;;;;;15.20;nan;101223.75;5015355;28;20038;-49
2022/05/16 01:45:43;;;;;;;5.93;2.67;;;;;;;15.25;nan;101223.53;5015767;28;20124;-49
2022/05/16 01:48:11;;;;;;;5.88;2.95;;;;;;;15.27;nan;101228.75;5015559;28;20038;-48
2022/05/16 01:50:37;;;;;;;9.02;3.10;;;;;;;14.92;nan;101169.38;5015602;28;20036;-48
2022/05/16 01:53:03;;;;;;;6.50;3.15;;;;;;;15.27;nan;101232.25;5015417;28;20038;-47
2022/05/16 01:55:28;;;;;;;9.43;2.97;;;;;;;15.26;nan;101217.31;5015817;28;20080;-53
2022/05/16 01:57:54;;;;;;;14.70;4.05;;;;;;;15.25;nan;101210.25;5015893;28;20044;-53
2022/05/16 02:00:19;;;;;;;7.53;3.30;;;;;;;14.98;nan;101158.47;5030578;28;20085;-52
2022/05/16 02:02:45;;;;;;;8.38;3.03;;;;;;;15.23;nan;101210.31;5035119;28;20033;-48
2022/05/16 02:05:14;;;;;;;9.02;3.67;;;;;;;15.03;nan;101181.19;5000870;28;20025;-55
2022/05/16 02:07:39;;;;;;;6.88;2.80;;;;;;;15.08;nan;101195.13;5034826;28;20102;-50
2022/05/16 02:10:06;;;;;;;9.02;3.13;;;;;;;15.13;nan;101187.81;5034642;28;20574;-52
2022/05/16 02:12:33;;;;;;;8.38;3.45;;;;;;;15.26;nan;101219.97;5001207;28;20068;-53
2022/05/16 02:14:58;;;;;;;9.80;3.40;;;;;;;14.90;nan;101142.06;5016388;28;20411;-49
2022/05/16 02:17:23;;;;;;;10.60;3.40;;;;;;;14.35;nan;101073.03;5016988;28;20087;-52
2022/05/16 02:19:49;;;;;;;7.95;3.42;;;;;;;15.17;nan;101204.47;5034767;28;20038;-53
2022/05/16 02:25:03;;;;;;;9.73;3.97;;;;;;;15.14;nan;101188.69;4996921;28;20045;-51
2022/05/16 02:27:28;;;;;;;8.63;3.60;;;;;;;15.11;nan;101184.38;5034676;28;20710;-49
2022/05/16 02:29:53;;;;;;;8.07;3.20;;;;;;;15.02;nan;101170.69;5034239;28;20075;-50
2022/05/16 02:32:19;;;;;;;9.60;3.47;;;;;;;14.84;nan;101147.66;5034254;28;20040;-55
2022/05/16 02:34:44;;;;;;;10.27;3.75;;;;;;;14.71;nan;101127.94;5034109;28;20033;-53
2022/05/16 02:37:11;;;;;;;8.00;3.15;;;;;;;15.00;nan;101184.00;5011739;28;20485;-55
2022/05/16 02:39:37;;;;;;;10.10;3.70;;;;;;;14.96;nan;101161.22;5011110;28;20025;-56
2022/05/16 02:42:02;;;;;;;11.38;3.60;;;;;;;14.52;nan;101098.75;5016426;28;20030;-50
2022/05/16 02:44:28;;;;;;;11.05;3.53;;;;;;;14.90;nan;101165.94;5033509;28;20037;-50
2022/05/16 02:46:53;;;;;;;15.18;4.18;;;;;;;14.59;nan;101102.84;5033748;28;20036;-50
2022/05/16 02:49:21;;;;;;;7.97;3.17;;;;;;;14.67;nan;101116.63;5033792;28;20038;-52
2022/05/16 02:51:46;;;;;;;11.45;4.38;;;;;;;14.44;nan;101071.75;5033484;28;20066;-50
2022/05/16 02:54:11;;;;;;;10.70;4.15;;;;;;;14.72;nan;101117.25;5016406;28;20034;-48
2022/05/16 02:56:37;;;;;;;6.85;3.03;;;;;;;14.37;nan;101079.09;5033157;28;20037;-47
2022/05/16 02:59:02;;;;;;;8.05;3.90;;;;;;;14.39;nan;101103.72;5033874;28;20084;-49
2022/05/16 03:01:29;;;;;;;9.60;3.50;;;;;;;14.64;nan;101132.66;5010619;28;20026;-50
2022/05/16 03:03:54;;;;;;;8.00;3.50;;;;;;;14.28;nan;101087.41;5027545;28;20045;-54
2022/05/16 03:06:19;;;;;;;6.40;3.42;;;;;;;14.52;nan;101127.88;5033220;28;20030;-52
2022/05/16 03:08:45;;;;;;;6.70;3.75;;;;;;;14.40;nan;101113.41;5033841;28;20465;-47
2022/05/16 03:11:10;;;;;;;9.23;3.67;;;;;;;14.22;nan;101085.03;5033377;28;20025;-48
2022/05/16 03:13:35;;;;;;;7.97;3.50;;;;;;;14.49;nan;101141.25;4996231;28;20109;-52
2022/05/16 03:16:02;;;;;;;9.15;3.92;;;;;;;14.50;nan;101114.72;5032005;28;20057;-55
2022/05/16 03:18:28;;;;;;;7.93;4.18;;;;;;;14.53;nan;101143.72;5033079;28;20497;-50
2022/05/16 03:20:53;;;;;;;9.63;3.83;;;;;;;14.54;nan;101133.97;5016269;28;20135;-55
2022/05/16 03:23:19;;;;;;;9.38;3.28;;;;;;;14.49;nan;101109.47;5033400;28;20111;-51
2022/05/16 03:25:44;;;;;;;7.18;3.53;;;;;;;14.49;nan;101104.19;5033082;28;20501;-47
2022/05/16 03:28:10;;;;;;;11.48;3.95;;;;;;;14.56;nan;101113.59;5033082;28;20061;-53
2022/05/16 03:30:36;;;;;;;10.65;3.75;;;;;;;14.58;nan;101125.84;5032478;28;20079;-50
2022/05/16 03:33:03;;;;;;;9.45;3.78;;;;;;;14.65;nan;101131.72;5033170;28;20044;-51
2022/05/16 03:35:29;;;;;;;10.40;4.32;;;;;;;14.66;nan;101128.13;5032595;28;20029;-54
2022/05/16 03:37:54;;;;;;;9.57;3.47;;;;;;;14.57;nan;101115.28;5033275;28;20107;-50
2022/05/16 03:43:04;;;;;;;7.50;3.38;;;;;;;14.67;nan;101134.28;5033065;28;20052;-48
2022/05/16 03:45:29;;;;;;;6.65;3.72;;;;;;;14.38;nan;101074.66;5031766;28;20041;-51
2022/05/16 03:47:54;;;;;;;7.88;3.80;;;;;;;14.66;nan;101122.84;5032813;28;20095;-47
2022/05/16 03:50:20;;;;;;;8.13;3.83;;;;;;;14.41;nan;101069.25;5032485;28;20108;-47
2022/05/16 03:52:45;;;;;;;10.65;3.90;;;;;;;14.55;nan;101103.91;5033111;28;20175;-58
2022/05/16 03:55:13;;;;;;;9.45;3.75;;;;;;;14.67;nan;101139.59;5032791;28;20072;-50
2022/05/16 03:57:40;;;;;;;9.60;4.53;;;;;;;14.68;nan;101133.38;5032608;28;20040;-50
2022/05/16 04:00:09;;;;;;;8.90;4.00;;;;;;;14.72;nan;101134.94;5032888;28;20054;-51
2022/05/16 04:02:36;;;;;;;6.70;3.90;;;;;;;14.44;nan;101090.28;5032533;28;20156;-51
2022/05/16 04:05:02;;;;;;;8.73;3.95;;;;;;;14.39;nan;101069.28;5031409;28;20036;-51
2022/05/16 04:07:27;;;;;;;11.70;4.28;;;;;;;14.52;nan;101082.84;5031745;28;20465;-52
2022/05/16 04:09:53;;;;;;;9.63;3.90;;;;;;;14.84;nan;101135.25;5032667;28;20029;-52
2022/05/16 04:12:18;;;;;;;9.27;4.50;;;;;;;14.91;nan;101139.38;5032369;28;20612;-50
2022/05/16 04:14:43;;;;;;;9.50;4.43;;;;;;;15.01;nan;101134.47;5032156;28;20108;-51
2022/05/16 04:17:09;;;;;;;11.82;4.43;;;;;;;15.05;nan;101129.00;5014019;28;20073;-57
2022/05/16 04:19:34;;;;;;;9.48;4.15;;;;;;;15.11;nan;101141.09;5032507;28;20037;-53
2022/05/16 04:21:59;;;;;;;9.40;5.05;;;;;;;15.17;nan;101136.38;5014572;28;20033;-50
2022/05/16 04:24:25;;;;;;;9.15;4.68;;;;;;;15.21;nan;101132.63;5032237;28;20037;-47
2022/05/16 04:26:50;;;;;;;9.35;4.68;;;;;;;15.30;nan;101134.00;5014669;28;20037;-48
2022/05/16 04:29:15;;;;;;;9.77;4.43;;;;;;;15.19;nan;101102.69;5032254;28;20041;-49
2022/05/16 04:31:41;;;;;;;10.25;4.82;;;;;;;15.16;nan;101086.91;5031916;28;20098;-49
2022/05/16 04:34:09;;;;;;;10.52;5.55;;;;;;;15.48;nan;101135.81;5032274;28;20082;-55
2022/05/16 04:36:36;;;;;;;9.65;5.32;;;;;;;15.29;nan;101110.22;5032338;28;20547;-49
2022/05/16 04:39:01;;;;;;;12.13;4.80;;;;;;;15.52;nan;101120.63;5032373;28;20033;-47
2022/05/16 04:44:10;;;;;;;14.40;5.32;;;;;;;15.44;nan;101082.97;5032078;28;20040;-51
2022/05/16 04:46:36;;;;;;;10.05;4.47;;;;;;;15.69;nan;101115.34;5014446;28;20029;-50
2022/05/16 04:49:02;;;;;;;9.50;5.03;;;;;;;15.54;nan;101079.81;5014620;28;20033;-49
2022/05/16 04:51:28;;;;;;;10.60;4.68;;;;;;;15.87;nan;101129.50;5014668;28;20046;-48
2022/05/16 04:53:53;;;;;;;10.05;4.57;;;;;;;16.00;nan;101130.59;5032000;28;20033;-50
2022/05/16 04:56:19;;;;;;;10.35;4.75;;;;;;;16.07;nan;101134.69;5030660;28;20069;-51
2022/05/16 04:58:44;;;;;;;8.70;4.75;;;;;;;15.90;nan;101106.31;5031754;28;21316;-57
2022/05/16 05:01:11;;;;;;;9.35;4.47;;;;;;;16.03;nan;101109.19;5014635;28;20124;-51
2022/05/16 05:03:36;;;;;;;13.13;5.03;;;;;;;16.29;nan;101152.09;5031971;28;20557;-51
2022/05/16 05:06:03;;;;;;;10.63;5.05;;;;;;;16.40;nan;101142.72;5032099;28;20056;-48
2022/05/16 05:08:28;;;;;;;9.98;5.38;;;;;;;16.38;nan;101140.13;5031702;28;20026;-54
2022/05/16 05:16:23;;;;;;;8.77;4.82;;;;;;;16.60;nan;101151.44;5032093;28;20551;-50
2022/05/16 05:18:49;;;;;;;7.68;5.05;;;;;;;16.68;nan;101161.66;5014371;28;20064;-53
2022/05/16 05:21:14;;;;;;;7.55;4.53;;;;;;;16.39;nan;101096.72;5031668;28;20458;-54
2022/05/16 05:23:40;;;;;;;10.20;4.90;;;;;;;16.70;nan;101143.81;5014012;28;20037;-48
2022/05/16 05:26:07;;;;;;;9.20;4.75;;;;;;;16.73;nan;101162.25;5013977;28;20112;-51
2022/05/16 05:28:33;;;;;;;8.80;5.05;;;;;;;16.40;nan;101098.44;4996355;28;20082;-53
2022/05/16 05:30:59;;;;;;;10.30;5.57;;;;;;;16.44;nan;101104.41;5014247;28;20033;-49
2022/05/16 05:33:25;;;;;;;7.47;5.07;;;;;;;16.33;nan;101103.19;5014098;28;20488;-48
2022/05/16 05:35:51;;;;;;;7.80;4.75;;;;;;;16.68;nan;101157.19;5031510;28;20443;-49
2022/05/16 05:38:18;;;;;;;7.82;5.20;;;;;;;16.39;nan;101110.00;5031682;28;20049;-48
2022/05/16 05:40:43;;;;;;;8.95;5.40;;;;;;;16.72;nan;101161.38;5031517;28;20187;-47
2022/05/16 05:43:09;;;;;;;10.48;5.60;;;;;;;16.43;nan;101116.00;5014014;28;20504;-49
2022/05/16 05:45:35;;;;;;;10.15;5.45;;;;;;;16.46;nan;101122.00;5031684;28;20029;-51
2022/05/16 05:48:01;;;;;;;7.85;5.38;;;;;;;16.77;nan;101171.78;5031431;28;20029;-50
2022/05/16 05:50:27;;;;;;;9.48;5.55;;;;;;;16.75;nan;101171.88;5013899;28;20036;-50
2022/05/16 05:52:52;;;;;;;10.27;5.05;;;;;;;16.76;nan;101192.19;5032887;28;20033;-54
2022/05/16 05:55:17;;;;;;;13.85;6.43;;;;;;;16.70;nan;101181.03;5035090;28;20110;-46
2022/05/16 05:57:43;;;;;;;11.98;5.80;;;;;;;16.73;nan;101178.19;5035390;28;20034;-52
2022/05/16 06:00:09;;;;;;;7.47;5.57;;;;;;;16.70;nan;101181.03;5035040;28;20130;-53
2022/05/16 06:02:40;;;;;;;19.35;5.32;;;;;;;16.61;nan;101176.19;5001081;28;20411;-55
2022/05/16 06:05:17;;;;;;;14.68;5.55;;;;;;;16.37;nan;101118.97;5017283;28;20033;-57
2022/05/16 06:07:43;;;;;;;11.77;5.85;;;;;;;16.51;nan;101156.31;5034258;28;20033;-56
2022/05/16 06:10:09;;;;;;;10.85;5.30;;;;;;;16.58;nan;101173.72;5034844;28;20088;-51
2022/05/16 06:12:34;;;;;;;10.93;5.25;;;;;;;16.64;nan;101174.22;5034862;28;20061;-51
2022/05/16 06:15:00;;;;;;;8.52;5.13;;;;;;;16.39;nan;101130.38;5034707;28;20029;-52
2022/05/16 06:17:25;;;;;;;11.85;5.78;;;;;;;16.58;nan;101169.22;5016896;28;20038;-56
2022/05/16 06:19:51;;;;;;;7.38;5.70;;;;;;;16.55;nan;101156.09;5016851;28;20033;-55
2022/05/16 06:22:16;;;;;;;9.48;6.00;;;;;;;16.56;nan;101155.16;5016688;28;20033;-55
2022/05/16 06:27:28;;;;;;;12.00;5.38;;;;;;;16.14;nan;101088.31;5034896;28;20047;-51
2022/05/16 06:29:55;;;;;;;7.35;5.30;;;;;;;16.76;nan;101178.91;5035119;28;20112;-53
2022/05/16 06:32:21;;;;;;;9.90;5.55;;;;;;;16.83;nan;101182.13;5019150;28;20469;-53
2022/05/16 06:34:48;;;;;;;10.77;5.90;;;;;;;16.92;nan;101186.09;5036501;28;20030;-51
2022/05/16 06:37:18;;;;;;;9.82;5.93;;;;;;;17.11;nan;101192.13;5034823;28;20453;-58
2022/05/16 06:39:51;;;;;;;10.35;5.85;;;;;;;17.30;nan;101184.88;5035203;28;20272;-55
2022/05/16 06:42:16;;;;;;;9.05;5.50;;;;;;;17.51;nan;101189.03;5035339;28;20037;-55
2022/05/16 06:44:42;;;;;;;9.95;5.60;;;;;;;17.79;nan;101199.00;5000257;28;20044;-55
2022/05/16 06:47:08;;;;;;;14.05;5.13;;;;;;;18.03;nan;101199.44;5034161;28;20095;-52
2022/05/16 06:49:33;;;;;;;11.25;5.88;;;;;;;18.28;nan;101199.72;5034233;28;20069;-51
2022/05/16 06:51:58;;;;;;;7.40;5.63;;;;;;;18.26;nan;101154.53;5034226;28;20034;-50
2022/05/16 06:54:24;;;;;;;12.30;5.80;;;;;;;18.49;nan;101156.69;5034289;28;20033;-55
2022/05/16 06:56:49;;;;;;;11.98;6.35;;;;;;;19.01;nan;101209.53;5016351;28;20037;-56
2022/05/16 06:59:15;;;;;;;15.00;6.47;;;;;;;19.20;nan;101198.59;5034113;28;20115;-56
2022/05/16 07:01:40;;;;;;;11.30;5.57;;;;;;;19.56;nan;101207.81;5033946;28;20049;-56
2022/05/16 07:04:05;;;;;;;16.02;6.10;;;;;;;19.92;nan;101183.22;5032733;28;20448;-57
2022/05/16 07:06:31;;;;;;;13.15;5.97;;;;;;;20.80;nan;101221.88;5033998;28;20065;-52
2022/05/16 07:08:56;;;;;;;10.48;5.28;;;;;;;21.19;nan;101211.13;5014950;28;20040;-55
2022/05/16 07:11:22;;;;;;;9.95;5.15;;;;;;;21.57;nan;101189.63;5032966;28;20041;-56
2022/05/16 07:13:47;;;;;;;7.80;4.57;;;;;;;22.01;nan;101189.09;5032726;28;20044;-53
2022/05/16 07:16:12;;;;;;;8.80;4.68;;;;;;;22.35;nan;101215.06;5032833;28;20420;-55
2022/05/16 07:18:38;;;;;;;7.90;4.70;;;;;;;22.49;nan;101233.66;5031764;28;20037;-55
2022/05/16 07:21:04;;;;;;;11.25;5.22;;;;;;;22.08;nan;101195.69;5032216;28;20492;-50
2022/05/16 07:23:30;;;;;;;9.30;4.90;;;;;;;21.97;nan;101239.38;5032519;28;20033;-52
2022/05/16 07:28:39;;;;;;;10.32;4.95;;;;;;;21.57;nan;101241.34;5032334;28;20183;-52
2022/05/16 07:31:04;;;;;;;8.13;5.43;;;;;;;21.45;nan;101241.41;5031882;28;20128;-54
2022/05/16 07:33:30;;;;;;;10.07;5.20;;;;;;;21.46;nan;101240.41;5014757;28;20092;-52
2022/05/16 07:35:55;;;;;;;11.25;5.93;;;;;;;21.44;nan;101231.66;5032490;28;20025;-56
2022/05/16 07:38:22;;;;;;;8.40;5.05;;;;;;;21.27;nan;101206.94;5014482;28;20049;-54
2022/05/16 07:40:48;;;;;;;10.07;5.75;;;;;;;21.46;nan;101254.66;5014783;28;20108;-50
2022/05/16 07:43:13;;;;;;;8.00;4.70;;;;;;;21.49;nan;101245.56;5014406;28;20163;-56
2022/05/16 07:45:39;;;;;;;9.50;4.93;;;;;;;21.54;nan;101249.63;5031875;28;20489;-54
2022/05/16 07:48:04;;;;;;;10.60;4.68;;;;;;;21.56;nan;101250.38;5031819;28;20543;-53
2022/05/16 07:50:31;;;;;;;8.32;4.68;;;;;;;21.31;nan;101203.06;5014312;28;20393;-52
2022/05/16 07:52:58;;;;;;;7.25;4.20;;;;;;;21.67;nan;101247.78;5014279;28;20034;-52
2022/05/16 07:55:24;;;;;;;7.28;4.57;;;;;;;21.86;nan;101239.28;5014488;28;20048;-53
2022/05/16 07:57:50;;;;;;;7.30;4.20;;;;;;;22.08;nan;101249.31;5014119;28;20570;-52
2022/05/16 08:00:16;;;;;;;8.20;4.90;;;;;;;22.67;nan;101242.19;5031751;28;20136;-52
2022/05/16 08:02:42;;;;;;;6.93;4.32;;;;;;;23.35;nan;101208.09;5031740;28;20037;-52
2022/05/16 08:05:09;;;;;;;8.48;4.55;;;;;;;24.24;nan;101269.88;5014160;28;20112;-52
2022/05/16 08:07:34;;;;;;;8.10;4.20;;;;;;;24.56;nan;101241.13;5014132;28;20575;-54
2022/05/16 08:12:43;;;;;;;7.88;3.28;;;;;;;25.88;nan;101288.03;5031535;28;20187;-53
2022/05/16 08:15:09;;;;;;;6.60;3.50;;;;;;;26.23;nan;101296.53;5014166;28;20124;-56
2022/05/16 08:17:35;;;;;;;5.10;3.05;;;;;;;26.69;nan;101306.66;5013754;28;20047;-51
2022/05/16 08:20:02;;;;;;;7.43;3.47;;;;;;;27.13;nan;101298.00;5031489;28;20333;-55
2022/05/16 08:22:32;;;;;;;5.25;3.28;;;;;;;27.04;nan;101293.47;5031761;28;20494;-57
2022/05/16 08:24:58;;;;;;;7.30;3.50;;;;;;;26.51;nan;101292.16;5031322;28;20033;-52
2022/05/16 08:27:24;;;;;;;6.35;3.60;;;;;;;25.72;nan;101286.69;5013802;28;20461;-49
2022/05/16 08:29:50;;;;;;;9.10;3.50;;;;;;;25.57;nan;101277.25;5031738;28;20044;-50
2022/05/16 08:32:16;;;;;;;5.85;3.90;;;;;;;25.97;nan;101274.59;5031065;28;20041;-55
2022/05/16 08:34:42;;;;;;;8.80;3.88;;;;;;;26.47;nan;101253.81;5031432;28;20048;-53
2022/05/16 08:40:03;;;;;;;6.80;3.55;;;;;;;28.19;nan;101295.78;5031345;28;20052;-49
2022/05/16 08:42:35;;;;;;;6.05;3.33;;;;;;;28.66;nan;101307.31;5031644;28;20033;-52
2022/05/16 08:45:04;;;;;;;5.70;3.03;;;;;;;28.81;nan;101256.16;5031454;28;20052;-51
2022/05/16 08:47:55;;;;;;;4.05;2.83;;;;;;;29.41;nan;101295.91;5032098;28;20115;-50
2022/05/16 08:50:28;;;;;;;9.02;3.45;;;;;;;29.70;nan;101295.56;5014500;28;20389;-56
2022/05/16 08:53:02;;;;;;;4.63;3.20;;;;;;;29.61;nan;101234.13;5031550;28;20030;-51
2022/05/16 08:55:35;;;;;;;6.00;3.70;;;;;;;30.10;nan;101287.59;5013224;28;20079;-50
2022/05/16 08:58:15;;;;;;;5.03;3.08;;;;;;;30.24;nan;101288.81;5013509;28;20036;-54
2022/05/16 09:00:48;;;;;;;5.63;2.58;;;;;;;30.38;nan;101269.22;5009793;28;20050;-52
2022/05/16 09:03:43;;;;;;;8.52;2.45;;;;;;;30.84;nan;101308.50;5011494;28;20045;-53
2022/05/16 09:06:21;;;;;;;5.18;2.60;;;;;;;31.26;nan;101292.03;4977519;28;20409;-52
2022/05/16 09:08:47;;;;;;;6.10;2.30;;;;;;;;;;5010198;28;20505;-59
2022/05/16 09:11:23;;;;;;;3.72;1.88;;;;;;;31.61;nan;101277.16;5011441;28;20284;-54
2022/05/16 09:13:55;;;;;;;4.57;2.08;;;;;;;31.89;nan;101293.88;5009427;28;20485;-51
2022/05/16 09:16:23;;;;;;;2.08;1.75;;;;;;;31.85;nan;101276.19;5009535;28;20426;-48
2022/05/16 09:19:22;;;;;;;6.22;2.17;;;;;;;32.04;nan;101313.94;5010736;28;20034;-54
2022/05/16 09:22:15;;;;;;;6.43;2.50;;;;;;;32.41;nan;101324.97;4978546;28;20069;-52
2022/05/16 09:25:04;;;;;;;3.65;2.38;;;;;;;32.36;nan;101337.44;5009434;28;20060;-51
2022/05/16 09:30:24;;;;;;;3.75;1.95;;;;;;;32.48;nan;101347.75;5014662;28;20500;-57
2022/05/16 09:32:59;;;;;;;4.85;2.20;;;;;;;32.02;nan;101316.81;5014691;28;20049;-53
2022/05/16 09:35:37;;;;;;;7.22;2.63;;;;;;;31.74;nan;101345.50;5013299;28;20112;-52
2022/05/16 09:38:03;;;;;;;3.92;2.30;;;;;;;31.44;nan;101357.94;5013204;28;20041;-58
2022/05/16 09:40:37;;;;;;;6.15;2.55;;;;;;;30.94;nan;101346.41;5014418;28;20034;-50
2022/05/16 09:43:23;;;;;;;4.35;2.65;;;;;;;30.24;nan;101386.59;5014469;28;20431;-52
2022/05/16 09:45:59;;;;;;;6.22;2.95;;;;;;;29.94;nan;101354.56;5014222;28;20435;-52
2022/05/16 09:48:25;;;;;;;4.80;2.80;;;;;;;30.78;nan;101392.56;5012753;28;20030;-54
2022/05/16 09:50:59;;;;;;;8.90;3.80;;;;;;;30.96;nan;101357.97;5013147;28;20087;-53
2022/05/16 09:53:33;;;;;;;6.07;3.38;;;;;;;30.16;nan;101399.28;5013920;28;20061;-52
2022/05/16 09:56:03;;;;;;;8.70;3.47;;;;;;;29.20;nan;101395.69;5013929;28;20489;-54
2022/05/16 09:58:33;;;;;;;;;;;;;;;28.56;nan;101404.00;5014818;28;20065;-53
2022/05/16 10:01:06;;;;;;;6.45;2.95;;;;;;;27.92;nan;101358.84;5033464;28;20364;-54
2022/05/16 10:03:50;;;;;;;5.50;3.65;;;;;;;27.48;nan;101367.66;5015912;28;20041;-48
2022/05/16 10:06:30;;;;;;;8.43;3.72;;;;;;;26.85;nan;101412.34;5033654;28;20041;-53
2022/05/16 10:09:03;;;;;;;6.13;3.15;;;;;;;25.76;nan;101348.44;5033641;28;20074;-56
2022/05/16 10:11:29;;;;;;;8.70;3.53;;;;;;;25.35;nan;101406.75;5033575;28;20025;-51
2022/05/16 10:13:55;;;;;;;10.85;4.32;;;;;;;24.38;nan;101357.50;5033600;28;20034;-55
2022/05/16 10:16:22;;;;;;;16.67;6.70;;;;;;;23.97;nan;101385.88;4999582;28;20124;-54
2022/05/16 10:18:54;;;;;;;8.13;4.20;;;;;;;23.06;nan;101383.25;5016154;28;20048;-56
2022/05/16 10:21:32;;;;;;;8.95;4.22;;;;;;;22.07;nan;101317.28;5015681;28;20057;-54
2022/05/16 10:23:59;;;;;;;6.90;4.13;;;;;;;21.93;nan;101373.72;5015625;28;20061;-49
2022/05/16 10:26:26;;;;;;;6.15;3.45;;;;;;;21.51;nan;101329.34;4999570;28;20041;-52
2022/05/16 10:28:56;;;;;;;4.70;2.83;;;;;;;21.72;nan;101397.50;5033512;28;20057;-53
2022/05/16 10:34:45;;;;;;;4.07;3.10;;;;;;;22.74;nan;101399.91;5033324;28;20048;-52
2022/05/16 10:37:11;;;;;;;7.30;4.03;;;;;;;23.01;nan;101423.00;5033082;28;20030;-52
2022/05/16 10:39:41;;;;;;;6.88;4.53;;;;;;;23.09;nan;101434.88;5033176;28;20439;-54
2022/05/16 10:42:10;;;;;;;9.93;6.20;;;;;;;22.83;nan;101439.50;5015374;28;20029;-57
2022/05/16 10:44:44;;;;;;;13.13;6.57;;;;;;;22.44;nan;101439.72;5015124;28;20030;-51
2022/05/16 10:47:13;;;;;;;15.45;7.65;;;;;;;22.12;nan;101441.16;5015117;28;20033;-52
2022/05/16 10:49:46;;;;;;;14.20;7.28;;;;;;;21.89;nan;101439.25;5032919;28;20071;-51
2022/05/16 10:52:28;;;;;;;11.50;7.80;;;;;;;21.46;nan;101407.34;5015290;28;20026;-53
2022/05/16 10:54:53;;;;;;;13.50;8.30;;;;;;;21.42;nan;101411.22;5032627;28;20025;-54
2022/05/16 10:57:58;;;;;;;17.23;8.75;;;;;;;21.40;nan;101433.66;5014886;28;20455;-56
2022/05/16 11:00:48;;;;;;;11.20;8.43;;;;;;;21.38;nan;101444.50;5032494;28;20447;-57
2022/05/16 11:03:34;;;;;;;18.07;9.83;;;;;;;20.78;nan;101324.50;5032521;28;20041;-52
2022/05/16 11:06:09;;;;;;;17.60;12.05;;;;;;;21.27;nan;101441.69;5015120;28;20030;-55
2022/05/16 11:09:01;;;;;;;19.45;15.00;;;;;;;21.11;nan;101439.19;5010755;28;20083;-54
2022/05/16 11:11:38;;;;;;;20.50;15.27;;;;;;;20.99;nan;101457.81;5012681;28;20073;-52
2022/05/16 11:14:16;;;;;;;16.77;14.10;;;;;;;20.92;nan;101459.22;5012531;28;20034;-52
2022/05/16 11:16:41;;;;;;;18.38;12.70;;;;;;;20.46;nan;101403.31;5012437;28;20030;-53
2022/05/16 11:19:15;;;;;;;14.30;11.63;;;;;;;20.73;nan;101462.22;5012341;28;20393;-51
2022/05/16 11:21:48;;;;;;;15.52;11.27;;;;;;;20.32;nan;101407.84;5012493;28;20033;-55
2022/05/16 11:24:34;;;;;;;15.73;11.68;;;;;;;20.36;nan;101466.38;5012059;28;20073;-56
2022/05/16 11:27:27;;;;;;;18.58;10.10;;;;;;;20.03;nan;101463.97;5012572;28;20088;-48
2022/05/16 11:30:02;;;;;;;23.70;10.93;;;;;;;19.56;nan;101432.13;5008137;28;20046;-58
2022/05/16 11:32:59;;;;;;;16.23;9.68;;;;;;;19.01;nan;101405.16;5012221;28;20496;-56
2022/05/16 11:35:43;;;;;;;13.23;9.00;;;;;;;18.80;nan;101445.53;5012318;28;20038;-53
2022/05/16 11:38:15;;;;;;;16.33;10.27;;;;;;;18.39;nan;101454.00;5012329;28;20037;-56
2022/05/16 11:41:01;;;;;;;14.30;9.95;;;;;;;18.22;nan;101454.06;4994553;28;20508;-52
2022/05/16 11:43:28;;;;;;;16.40;10.82;;;;;;;;;;5012008;28;20040;-52
2022/05/16 11:46:20;;;;;;;19.33;12.13;;;;;;;17.90;nan;101457.59;5011894;28;20068;-53
2022/05/16 11:49:04;;;;;;;18.05;12.23;;;;;;;17.76;nan;101457.47;4994464;28;20053;-56
2022/05/16 11:52:07;;;;;;;19.38;14.75;;;;;;;17.57;nan;101470.84;5011298;28;20057;-54
2022/05/16 11:54:36;;;;;;;20.25;15.57;;;;;;;17.48;nan;101470.47;5011711;28;20041;-54
2022/05/16 12:02:42;;;;;;;28.73;20.90;;;;;;;17.45;nan;101476.81;5011909;28;20096;-52
2022/05/16 12:05:20;;;;;;;28.65;21.23;;;;;;;17.58;nan;101485.03;4994096;28;20100;-50
2022/05/16 12:07:47;;;;;;;35.63;22.25;;;;;;;17.78;nan;101471.56;5011826;28;20073;-56
2022/05/16 12:10:16;;;;;;;29.02;21.15;;;;;;;18.10;nan;101484.03;5011426;28;20038;-49
2022/05/16 12:12:42;;;;;;;31.48;21.02;;;;;;;18.35;nan;101481.78;5011546;28;20046;-51
2022/05/16 12:15:07;;;;;;;30.42;22.73;;;;;;;18.53;nan;101490.63;4993820;28;20125;-56
2022/05/16 12:17:34;;;;;;;27.25;20.85;;;;;;;18.52;nan;101488.91;5011098;28;20124;-55
2022/05/16 12:19:59;;;;;;;29.85;20.00;;;;;;;18.15;nan;101444.72;5010971;28;20052;-56
2022/05/16 12:22:34;;;;;;;25.73;19.45;;;;;;;18.51;nan;101516.50;4993328;28;20477;-52
2022/05/16 12:25:24;;;;;;;26.00;18.60;;;;;;;18.37;nan;101458.56;5011070;28;20057;-53
2022/05/16 12:28:12;;;;;;;25.83;17.45;;;;;;;18.79;nan;101511.38;5011371;28;20092;-54